< < Back
Terminal Aerodrome Forecast


Current Version              Previous Versions:   1  2  3  4  5  6  7  8  9  

Terminal Aerodrome Forecast

203
FTUS42 KMLB 250903 AAA
TAFMCO
TAF AMD
KMCO 250903Z 2509/2606 00000KT P6SM SKC
     FM251400 11005KT P6SM SCT030
     FM251800 15008KT P6SM VCTS SCT035CB BKN060
      TEMPO 2519/2522 3SM TSRA BKN020CB OVC040
     FM252300 15005KT P6SM SCT050 BKN100=

Latest METAR

621
SAUS70 KWBC 260200 RRJ
MTRMCO
METAR KMCO 260153Z 20007KT 10SM FEW022 FEW050 27/23 A3007 RMK AO2 SLP181
T02720228


USA.gov is the U.S. government's official web portal to all federal, state and local government web resources and services.